sensor_id;sensor_type;location;lat;lon;timestamp;pressure;altitude;pressure_sealevel;temperature;humidity
35224;BME280;21367;51.930;8.112;2023-01-26T00:04:36;101916.94;;;-1.02;89.98
35224;BME280;21367;51.930;8.112;2023-01-26T00:09:40;101907.50;;;-0.64;90.19
35224;BME280;21367;51.930;8.112;2023-01-26T00:14:47;101908.63;;;-1.01;90.85
35224;BME280;21367;51.930;8.112;2023-01-26T00:19:55;101893.97;;;-1.12;90.71
35224;BME280;21367;51.930;8.112;2023-01-26T00:24:59;101889.72;;;-1.21;91.92
35224;BME280;21367;51.930;8.112;2023-01-26T00:30:07;101889.78;;;-1.44;93.24
35224;BME280;21367;51.930;8.112;2023-01-26T00:35:11;101877.97;;;-1.75;94.86
35224;BME280;21367;51.930;8.112;2023-01-26T00:40:15;101864.94;;;-1.48;94.42
35224;BME280;21367;51.930;8.112;2023-01-26T00:45:22;101856.13;;;-1.28;94.54
35224;BME280;21367;51.930;8.112;2023-01-26T00:50:27;101861.88;;;-1.29;95.17
35224;BME280;21367;51.930;8.112;2023-01-26T00:55:32;101851.31;;;-1.34;93.25
35224;BME280;21367;51.930;8.112;2023-01-26T01:00:39;101854.16;;;-1.31;94.40
35224;BME280;21367;51.930;8.112;2023-01-26T01:05:44;101856.84;;;-0.82;93.51
35224;BME280;21367;51.930;8.112;2023-01-26T01:10:49;101843.91;;;-1.01;93.14
35224;BME280;21367;51.930;8.112;2023-01-26T01:15:58;101839.78;;;-0.84;93.17
35224;BME280;21367;51.930;8.112;2023-01-26T01:21:05;101837.25;;;-0.84;93.37
35224;BME280;21367;51.930;8.112;2023-01-26T01:26:10;101849.44;;;-0.64;92.88
35224;BME280;21367;51.930;8.112;2023-01-26T01:31:17;101851.78;;;-0.66;93.12
35224;BME280;21367;51.930;8.112;2023-01-26T01:36:21;101837.59;;;-0.57;93.58
35224;BME280;21367;51.930;8.112;2023-01-26T01:41:26;101836.03;;;-0.72;94.11
35224;BME280;21367;51.930;8.112;2023-01-26T01:46:34;101837.72;;;-0.80;94.69
35224;BME280;21367;51.930;8.112;2023-01-26T01:51:42;101832.34;;;-0.83;95.05
35224;BME280;21367;51.930;8.112;2023-01-26T01:56:50;101826.66;;;-1.05;97.14
35224;BME280;21367;51.930;8.112;2023-01-26T02:01:58;101827.47;;;-0.81;97.88
35224;BME280;21367;51.930;8.112;2023-01-26T02:07:03;101813.16;;;-1.05;99.15
35224;BME280;21367;51.930;8.112;2023-01-26T02:12:10;101813.63;;;-0.85;99.30
35224;BME280;21367;51.930;8.112;2023-01-26T02:17:18;101811.72;;;-1.03;98.05
35224;BME280;21367;51.930;8.112;2023-01-26T02:22:29;101800.78;;;-0.95;99.83
35224;BME280;21367;51.930;8.112;2023-01-26T02:27:37;101796.53;;;-0.72;99.28
35224;BME280;21367;51.930;8.112;2023-01-26T02:32:41;101795.66;;;-1.20;100.00
35224;BME280;21367;51.930;8.112;2023-01-26T02:37:45;101799.06;;;-0.72;99.40
35224;BME280;21367;51.930;8.112;2023-01-26T02:42:52;101787.25;;;-0.80;99.50
35224;BME280;21367;51.930;8.112;2023-01-26T02:47:56;101796.66;;;-0.70;99.04
35224;BME280;21367;51.930;8.112;2023-01-26T02:53:05;101799.06;;;-0.72;98.75
35224;BME280;21367;51.930;8.112;2023-01-26T02:58:12;101795.63;;;-0.72;98.13
35224;BME280;21367;51.930;8.112;2023-01-26T03:03:19;101793.06;;;-0.56;97.88
35224;BME280;21367;51.930;8.112;2023-01-26T03:08:24;101787.47;;;-0.45;97.91
35224;BME280;21367;51.930;8.112;2023-01-26T03:13:31;101789.88;;;-0.47;97.47
35224;BME280;21367;51.930;8.112;2023-01-26T03:18:35;101785.97;;;-0.27;96.19
35224;BME280;21367;51.930;8.112;2023-01-26T03:23:55;101779.78;;;-0.47;96.98
35224;BME280;21367;51.930;8.112;2023-01-26T03:29:14;101788.13;;;-0.39;97.00
35224;BME280;21367;51.930;8.112;2023-01-26T03:34:19;101772.59;;;-0.51;97.18
35224;BME280;21367;51.930;8.112;2023-01-26T03:39:23;101772.28;;;-0.29;98.33
35224;BME280;21367;51.930;8.112;2023-01-26T03:44:46;101772.81;;;-0.40;97.91
35224;BME280;21367;51.930;8.112;2023-01-26T03:50:03;101780.84;;;-0.36;97.46
35224;BME280;21367;51.930;8.112;2023-01-26T03:55:19;101783.88;;;-0.22;97.92
35224;BME280;21367;51.930;8.112;2023-01-26T04:00:38;101768.03;;;-0.21;96.94
35224;BME280;21367;51.930;8.112;2023-01-26T04:05:42;101763.66;;;-0.31;97.88
35224;BME280;21367;51.930;8.112;2023-01-26T04:10:59;101763.16;;;-0.11;97.33
35224;BME280;21367;51.930;8.112;2023-01-26T04:16:07;101773.91;;;-0.30;97.79
35224;BME280;21367;51.930;8.112;2023-01-26T04:21:24;101765.28;;;-0.32;97.74
35224;BME280;21367;51.930;8.112;2023-01-26T04:26:36;101770.19;;;-0.33;98.18
35224;BME280;21367;51.930;8.112;2023-01-26T04:31:46;101762.16;;;-0.29;97.92
35224;BME280;21367;51.930;8.112;2023-01-26T04:36:54;101760.44;;;-0.21;97.81
35224;BME280;21367;51.930;8.112;2023-01-26T04:42:03;101759.53;;;-0.22;98.05
35224;BME280;21367;51.930;8.112;2023-01-26T04:47:11;101756.19;;;-0.05;97.42
35224;BME280;21367;51.930;8.112;2023-01-26T04:52:15;101757.16;;;-0.20;98.06
35224;BME280;21367;51.930;8.112;2023-01-26T04:57:19;101757.56;;;-0.33;98.67
35224;BME280;21367;51.930;8.112;2023-01-26T05:02:28;101757.78;;;-0.72;100.00
35224;BME280;21367;51.930;8.112;2023-01-26T05:07:32;101751.50;;;-0.76;100.00
35224;BME280;21367;51.930;8.112;2023-01-26T05:12:37;101761.53;;;-0.35;100.00
35224;BME280;21367;51.930;8.112;2023-01-26T05:18:11;101756.28;;;-0.21;99.61
35224;BME280;21367;51.930;8.112;2023-01-26T05:23:44;101751.94;;;-0.22;99.62
35224;BME280;21367;51.930;8.112;2023-01-26T05:29:23;101746.63;;;-0.25;99.10
35224;BME280;21367;51.930;8.112;2023-01-26T05:34:30;101755.69;;;-0.18;99.52
35224;BME280;21367;51.930;8.112;2023-01-26T05:39:34;101747.50;;;-0.16;99.51
35224;BME280;21367;51.930;8.112;2023-01-26T05:44:41;101752.13;;;-0.20;100.00
35224;BME280;21367;51.930;8.112;2023-01-26T05:49:50;101758.75;;;-0.30;100.00
35224;BME280;21367;51.930;8.112;2023-01-26T05:54:59;101755.41;;;-0.13;99.75
35224;BME280;21367;51.930;8.112;2023-01-26T06:00:05;101750.84;;;-0.08;99.50
35224;BME280;21367;51.930;8.112;2023-01-26T06:05:26;101742.72;;;-0.30;100.00
35224;BME280;21367;51.930;8.112;2023-01-26T06:10:31;101755.78;;;-0.26;100.00
35224;BME280;21367;51.930;8.112;2023-01-26T06:15:40;101751.69;;;-0.16;100.00
35224;BME280;21367;51.930;8.112;2023-01-26T06:20:47;101751.72;;;-0.65;100.00
35224;BME280;21367;51.930;8.112;2023-01-26T06:25:51;101748.56;;;-0.14;100.00
35224;BME280;21367;51.930;8.112;2023-01-26T06:30:58;101752.66;;;0.02;100.00
35224;BME280;21367;51.930;8.112;2023-01-26T06:36:08;101756.41;;;-0.19;100.00
35224;BME280;21367;51.930;8.112;2023-01-26T06:41:14;101755.31;;;-0.06;100.00
35224;BME280;21367;51.930;8.112;2023-01-26T06:46:18;101752.34;;;-0.02;100.00
35224;BME280;21367;51.930;8.112;2023-01-26T06:51:44;101753.41;;;0.01;98.90
35224;BME280;21367;51.930;8.112;2023-01-26T06:56:50;101755.19;;;0.02;99.98
35224;BME280;21367;51.930;8.112;2023-01-26T07:02:21;101748.03;;;-0.03;100.00
35224;BME280;21367;51.930;8.112;2023-01-26T07:07:28;101752.19;;;-0.03;100.00
35224;BME280;21367;51.930;8.112;2023-01-26T07:12:39;101749.28;;;0.10;100.00
35224;BME280;21367;51.930;8.112;2023-01-26T07:17:43;101742.22;;;-0.02;100.00
35224;BME280;21367;51.930;8.112;2023-01-26T07:22:50;101749.47;;;-0.13;100.00
35224;BME280;21367;51.930;8.112;2023-01-26T07:27:55;101748.59;;;-0.63;100.00
35224;BME280;21367;51.930;8.112;2023-01-26T07:32:59;101752.81;;;-0.30;100.00
35224;BME280;21367;51.930;8.112;2023-01-26T07:38:06;101756.78;;;-0.08;100.00
35224;BME280;21367;51.930;8.112;2023-01-26T07:43:10;101762.09;;;-0.13;100.00
35224;BME280;21367;51.930;8.112;2023-01-26T07:48:22;101768.34;;;-0.18;100.00
35224;BME280;21367;51.930;8.112;2023-01-26T07:53:32;101768.56;;;0.01;100.00
35224;BME280;21367;51.930;8.112;2023-01-26T07:58:39;101768.00;;;0.12;100.00
35224;BME280;21367;51.930;8.112;2023-01-26T08:03:44;101765.06;;;0.16;100.00
35224;BME280;21367;51.930;8.112;2023-01-26T08:08:50;101773.09;;;0.20;100.00
35224;BME280;21367;51.930;8.112;2023-01-26T08:13:54;101776.75;;;0.07;100.00
35224;BME280;21367;51.930;8.112;2023-01-26T08:18:58;101778.50;;;-0.01;100.00
35224;BME280;21367;51.930;8.112;2023-01-26T08:24:06;101781.72;;;0.22;100.00
35224;BME280;21367;51.930;8.112;2023-01-26T08:29:10;101783.94;;;0.19;100.00
35224;BME280;21367;51.930;8.112;2023-01-26T08:34:16;101787.84;;;0.33;100.00
35224;BME280;21367;51.930;8.112;2023-01-26T08:39:24;101780.88;;;0.39;100.00
35224;BME280;21367;51.930;8.112;2023-01-26T08:44:28;101775.06;;;0.32;100.00
35224;BME280;21367;51.930;8.112;2023-01-26T08:49:32;101775.06;;;0.40;100.00
35224;BME280;21367;51.930;8.112;2023-01-26T08:54:39;101773.94;;;0.80;100.00
35224;BME280;21367;51.930;8.112;2023-01-26T08:59:42;101775.16;;;1.01;99.30
35224;BME280;21367;51.930;8.112;2023-01-26T09:04:47;101778.53;;;0.84;99.45
35224;BME280;21367;51.930;8.112;2023-01-26T09:09:53;101776.78;;;0.83;99.14
35224;BME280;21367;51.930;8.112;2023-01-26T09:14:58;101787.81;;;1.10;98.30
35224;BME280;21367;51.930;8.112;2023-01-26T09:20:03;101779.75;;;1.05;98.36
35224;BME280;21367;51.930;8.112;2023-01-26T09:25:13;101795.41;;;1.01;97.69
35224;BME280;21367;51.930;8.112;2023-01-26T09:30:17;101789.41;;;0.83;98.70
35224;BME280;21367;51.930;8.112;2023-01-26T09:35:21;101787.22;;;1.04;97.86
35224;BME280;21367;51.930;8.112;2023-01-26T09:40:35;101800.13;;;0.81;99.51
35224;BME280;21367;51.930;8.112;2023-01-26T09:45:45;101800.16;;;0.98;98.88
35224;BME280;21367;51.930;8.112;2023-01-26T09:50:56;101793.91;;;0.86;98.69
35224;BME280;21367;51.930;8.112;2023-01-26T09:56:11;101799.38;;;0.90;99.71
35224;BME280;21367;51.930;8.112;2023-01-26T10:01:23;101784.66;;;0.86;99.81
35224;BME280;21367;51.930;8.112;2023-01-26T10:06:30;101786.59;;;0.89;100.00
35224;BME280;21367;51.930;8.112;2023-01-26T10:11:45;101779.88;;;1.24;99.11
35224;BME280;21367;51.930;8.112;2023-01-26T10:16:52;101774.06;;;1.25;97.85
35224;BME280;21367;51.930;8.112;2023-01-26T10:21:59;101770.63;;;1.42;97.86
35224;BME280;21367;51.930;8.112;2023-01-26T10:27:12;101766.03;;;1.29;96.32
35224;BME280;21367;51.930;8.112;2023-01-26T10:32:17;101770.47;;;1.41;96.39
35224;BME280;21367;51.930;8.112;2023-01-26T10:37:22;101764.06;;;1.53;97.37
35224;BME280;21367;51.930;8.112;2023-01-26T10:42:31;101753.59;;;1.58;96.39
35224;BME280;21367;51.930;8.112;2023-01-26T10:47:35;101759.63;;;1.42;96.36
35224;BME280;21367;51.930;8.112;2023-01-26T10:52:58;101749.72;;;1.62;96.81
35224;BME280;21367;51.930;8.112;2023-01-26T10:58:08;101752.34;;;1.19;97.44
35224;BME280;21367;51.930;8.112;2023-01-26T11:03:28;101754.56;;;1.33;99.92
35224;BME280;21367;51.930;8.112;2023-01-26T11:08:34;101754.38;;;1.49;98.91
35224;BME280;21367;51.930;8.112;2023-01-26T11:13:41;101755.88;;;1.47;98.33
35224;BME280;21367;51.930;8.112;2023-01-26T11:18:45;101748.72;;;1.51;98.52
35224;BME280;21367;51.930;8.112;2023-01-26T11:23:59;101742.66;;;1.14;99.16
35224;BME280;21367;51.930;8.112;2023-01-26T11:29:38;101740.72;;;1.38;100.00
35224;BME280;21367;51.930;8.112;2023-01-26T11:34:51;101736.66;;;1.49;98.51
35224;BME280;21367;51.930;8.112;2023-01-26T11:40:10;101726.94;;;1.53;97.59
35224;BME280;21367;51.930;8.112;2023-01-26T11:45:26;101720.69;;;1.50;99.58
35224;BME280;21367;51.930;8.112;2023-01-26T11:50:34;101723.38;;;1.51;98.49
35224;BME280;21367;51.930;8.112;2023-01-26T11:55:53;101727.97;;;1.64;98.94
35224;BME280;21367;51.930;8.112;2023-01-26T12:01:05;101714.72;;;1.58;98.29
35224;BME280;21367;51.930;8.112;2023-01-26T12:06:17;101716.47;;;1.68;98.75
35224;BME280;21367;51.930;8.112;2023-01-26T12:11:24;101713.94;;;0.97;100.00
35224;BME280;21367;51.930;8.112;2023-01-26T12:16:42;101703.91;;;1.42;100.00
35224;BME280;21367;51.930;8.112;2023-01-26T12:21:48;101693.19;;;1.72;100.00
35224;BME280;21367;51.930;8.112;2023-01-26T12:26:53;101682.84;;;1.60;100.00
35224;BME280;21367;51.930;8.112;2023-01-26T12:32:04;101676.72;;;1.58;100.00
35224;BME280;21367;51.930;8.112;2023-01-26T12:43:02;101667.59;;;1.96;100.00
35224;BME280;21367;51.930;8.112;2023-01-26T12:48:20;101665.66;;;1.94;99.51
35224;BME280;21367;51.930;8.112;2023-01-26T12:53:26;101660.03;;;1.88;99.81
35224;BME280;21367;51.930;8.112;2023-01-26T12:58:37;101652.16;;;2.03;99.87
35224;BME280;21367;51.930;8.112;2023-01-26T13:03:52;101648.38;;;2.17;99.21
35224;BME280;21367;51.930;8.112;2023-01-26T13:09:02;101656.28;;;2.39;98.41
35224;BME280;21367;51.930;8.112;2023-01-26T13:14:28;101647.22;;;1.86;100.00
35224;BME280;21367;51.930;8.112;2023-01-26T13:19:50;101654.75;;;1.76;100.00
35224;BME280;21367;51.930;8.112;2023-01-26T13:24:56;101653.41;;;1.71;100.00
35224;BME280;21367;51.930;8.112;2023-01-26T13:30:00;101655.22;;;1.91;100.00
35224;BME280;21367;51.930;8.112;2023-01-26T13:35:12;101656.88;;;1.90;100.00
35224;BME280;21367;51.930;8.112;2023-01-26T13:40:20;101652.81;;;1.73;100.00
35224;BME280;21367;51.930;8.112;2023-01-26T13:45:31;101644.81;;;1.88;100.00
35224;BME280;21367;51.930;8.112;2023-01-26T13:50:51;101651.06;;;1.91;100.00
35224;BME280;21367;51.930;8.112;2023-01-26T13:55:57;101653.97;;;2.04;100.00
35224;BME280;21367;51.930;8.112;2023-01-26T14:01:05;101651.72;;;1.80;100.00
35224;BME280;21367;51.930;8.112;2023-01-26T14:06:18;101650.16;;;1.91;100.00
35224;BME280;21367;51.930;8.112;2023-01-26T14:11:25;101659.38;;;1.99;100.00
35224;BME280;21367;51.930;8.112;2023-01-26T14:16:36;101649.88;;;1.88;100.00
35224;BME280;21367;51.930;8.112;2023-01-26T14:21:51;101657.25;;;2.03;100.00
35224;BME280;21367;51.930;8.112;2023-01-26T14:26:56;101657.06;;;2.11;100.00
35224;BME280;21367;51.930;8.112;2023-01-26T14:32:00;101662.75;;;2.08;100.00
35224;BME280;21367;51.930;8.112;2023-01-26T14:37:12;101665.78;;;2.04;100.00
35224;BME280;21367;51.930;8.112;2023-01-26T14:42:18;101663.16;;;2.13;100.00
35224;BME280;21367;51.930;8.112;2023-01-26T14:47:30;101661.63;;;1.96;100.00
35224;BME280;21367;51.930;8.112;2023-01-26T14:52:43;101673.53;;;2.24;100.00
35224;BME280;21367;51.930;8.112;2023-01-26T14:57:50;101677.91;;;2.17;100.00
35224;BME280;21367;51.930;8.112;2023-01-26T15:02:59;101674.47;;;2.16;100.00
35224;BME280;21367;51.930;8.112;2023-01-26T15:08:18;101680.38;;;2.25;100.00
35224;BME280;21367;51.930;8.112;2023-01-26T15:13:24;101675.56;;;2.09;100.00
35224;BME280;21367;51.930;8.112;2023-01-26T15:18:33;101685.00;;;2.29;100.00
35224;BME280;21367;51.930;8.112;2023-01-26T15:23:44;101683.19;;;2.28;100.00
35224;BME280;21367;51.930;8.112;2023-01-26T15:28:49;101675.31;;;2.44;100.00
35224;BME280;21367;51.930;8.112;2023-01-26T15:33:54;101669.34;;;2.44;100.00
35224;BME280;21367;51.930;8.112;2023-01-26T15:39:10;101665.09;;;2.34;100.00
35224;BME280;21367;51.930;8.112;2023-01-26T15:44:23;101653.41;;;2.26;100.00
35224;BME280;21367;51.930;8.112;2023-01-26T15:49:29;101647.69;;;2.47;100.00
35224;BME280;21367;51.930;8.112;2023-01-26T15:54:38;101648.59;;;2.48;100.00
35224;BME280;21367;51.930;8.112;2023-01-26T15:59:42;101645.97;;;2.38;100.00
35224;BME280;21367;51.930;8.112;2023-01-26T16:04:49;101645.69;;;2.35;100.00
35224;BME280;21367;51.930;8.112;2023-01-26T16:09:58;101651.88;;;2.47;100.00
35224;BME280;21367;51.930;8.112;2023-01-26T16:15:20;101658.47;;;2.26;100.00
35224;BME280;21367;51.930;8.112;2023-01-26T16:20:26;101666.34;;;2.48;100.00
35224;BME280;21367;51.930;8.112;2023-01-26T16:25:32;101659.75;;;2.50;100.00
35224;BME280;21367;51.930;8.112;2023-01-26T16:30:36;101658.66;;;2.38;100.00
35224;BME280;21367;51.930;8.112;2023-01-26T16:35:40;101651.75;;;2.45;100.00
35224;BME280;21367;51.930;8.112;2023-01-26T16:40:48;101661.47;;;2.41;100.00
35224;BME280;21367;51.930;8.112;2023-01-26T16:45:52;101660.31;;;2.56;100.00
35224;BME280;21367;51.930;8.112;2023-01-26T16:50:55;101669.97;;;2.41;100.00
35224;BME280;21367;51.930;8.112;2023-01-26T16:56:02;101670.72;;;2.59;100.00
35224;BME280;21367;51.930;8.112;2023-01-26T17:01:14;101679.78;;;2.47;100.00
35224;BME280;21367;51.930;8.112;2023-01-26T17:06:19;101681.91;;;2.42;100.00
35224;BME280;21367;51.930;8.112;2023-01-26T17:11:27;101681.03;;;2.61;100.00
35224;BME280;21367;51.930;8.112;2023-01-26T17:16:31;101680.31;;;2.72;100.00
35224;BME280;21367;51.930;8.112;2023-01-26T17:21:35;101684.50;;;2.71;100.00
35224;BME280;21367;51.930;8.112;2023-01-26T17:26:42;101676.97;;;2.63;100.00
35224;BME280;21367;51.930;8.112;2023-01-26T17:31:46;101693.56;;;2.78;100.00
35224;BME280;21367;51.930;8.112;2023-01-26T17:36:51;101687.47;;;2.76;100.00
35224;BME280;21367;51.930;8.112;2023-01-26T17:41:58;101693.91;;;2.53;100.00
35224;BME280;21367;51.930;8.112;2023-01-26T17:47:02;101696.25;;;2.61;100.00
35224;BME280;21367;51.930;8.112;2023-01-26T17:52:06;101697.16;;;2.61;100.00
35224;BME280;21367;51.930;8.112;2023-01-26T17:57:16;101704.47;;;2.58;100.00
35224;BME280;21367;51.930;8.112;2023-01-26T18:02:20;101696.59;;;2.74;100.00
35224;BME280;21367;51.930;8.112;2023-01-26T18:07:24;101697.63;;;2.57;100.00
35224;BME280;21367;51.930;8.112;2023-01-26T18:12:31;101701.72;;;2.46;100.00
35224;BME280;21367;51.930;8.112;2023-01-26T18:17:41;101697.19;;;2.52;100.00
35224;BME280;21367;51.930;8.112;2023-01-26T18:22:45;101691.34;;;2.72;100.00
35224;BME280;21367;51.930;8.112;2023-01-26T18:27:52;101690.34;;;2.70;100.00
35224;BME280;21367;51.930;8.112;2023-01-26T18:32:56;101683.06;;;2.65;100.00
35224;BME280;21367;51.930;8.112;2023-01-26T18:38:00;101692.88;;;2.70;100.00
35224;BME280;21367;51.930;8.112;2023-01-26T18:43:08;101695.88;;;2.66;100.00
35224;BME280;21367;51.930;8.112;2023-01-26T18:48:12;101691.56;;;2.84;100.00
35224;BME280;21367;51.930;8.112;2023-01-26T18:53:16;101691.09;;;2.50;100.00
35224;BME280;21367;51.930;8.112;2023-01-26T18:58:23;101685.94;;;2.59;100.00
35224;BME280;21367;51.930;8.112;2023-01-26T19:03:27;101688.81;;;2.72;100.00
35224;BME280;21367;51.930;8.112;2023-01-26T19:08:31;101684.94;;;2.76;100.00
35224;BME280;21367;51.930;8.112;2023-01-26T19:13:38;101690.34;;;2.70;100.00
35224;BME280;21367;51.930;8.112;2023-01-26T19:18:45;101695.69;;;2.92;100.00
35224;BME280;21367;51.930;8.112;2023-01-26T19:23:51;101703.31;;;2.92;100.00
35224;BME280;21367;51.930;8.112;2023-01-26T19:28:58;101705.28;;;2.02;100.00
35224;BME280;21367;51.930;8.112;2023-01-26T19:34:04;101709.00;;;2.71;100.00
35224;BME280;21367;51.930;8.112;2023-01-26T19:39:08;101711.53;;;2.71;100.00
35224;BME280;21367;51.930;8.112;2023-01-26T19:44:16;101716.19;;;2.47;100.00
35224;BME280;21367;51.930;8.112;2023-01-26T19:49:20;101712.97;;;2.59;100.00
35224;BME280;21367;51.930;8.112;2023-01-26T19:54:24;101717.00;;;2.57;100.00
35224;BME280;21367;51.930;8.112;2023-01-26T19:59:30;101711.38;;;2.69;100.00
35224;BME280;21367;51.930;8.112;2023-01-26T20:04:34;101712.38;;;2.80;100.00
35224;BME280;21367;51.930;8.112;2023-01-26T20:09:38;101710.22;;;2.66;100.00
35224;BME280;21367;51.930;8.112;2023-01-26T20:14:45;101708.22;;;2.91;100.00
35224;BME280;21367;51.930;8.112;2023-01-26T20:19:51;101702.25;;;2.90;100.00
35224;BME280;21367;51.930;8.112;2023-01-26T20:24:55;101707.06;;;2.49;100.00
35224;BME280;21367;51.930;8.112;2023-01-26T20:30:03;101713.63;;;2.28;100.00
35224;BME280;21367;51.930;8.112;2023-01-26T20:35:10;101715.06;;;1.89;100.00
35224;BME280;21367;51.930;8.112;2023-01-26T20:40:14;101724.75;;;2.39;100.00
35224;BME280;21367;51.930;8.112;2023-01-26T20:45:21;101713.81;;;2.49;100.00
35224;BME280;21367;51.930;8.112;2023-01-26T20:50:25;101707.84;;;2.86;100.00
35224;BME280;21367;51.930;8.112;2023-01-26T20:55:29;101711.06;;;2.56;100.00
35224;BME280;21367;51.930;8.112;2023-01-26T21:00:35;101705.31;;;2.67;100.00
35224;BME280;21367;51.930;8.112;2023-01-26T21:05:40;101706.41;;;2.80;100.00
35224;BME280;21367;51.930;8.112;2023-01-26T21:10:44;101707.78;;;2.76;100.00
35224;BME280;21367;51.930;8.112;2023-01-26T21:15:51;101705.69;;;2.91;100.00
35224;BME280;21367;51.930;8.112;2023-01-26T21:20:55;101711.38;;;2.69;100.00
35224;BME280;21367;51.930;8.112;2023-01-26T21:26:03;101701.88;;;2.86;100.00
35224;BME280;21367;51.930;8.112;2023-01-26T21:31:11;101699.69;;;2.80;100.00
35224;BME280;21367;51.930;8.112;2023-01-26T21:36:18;101703.16;;;2.91;100.00
35224;BME280;21367;51.930;8.112;2023-01-26T21:41:24;101704.75;;;2.80;100.00
35224;BME280;21367;51.930;8.112;2023-01-26T21:46:43;101703.56;;;2.95;100.00
35224;BME280;21367;51.930;8.112;2023-01-26T21:51:48;101685.53;;;2.92;100.00
35224;BME280;21367;51.930;8.112;2023-01-26T21:57:16;101689.75;;;3.02;100.00
35224;BME280;21367;51.930;8.112;2023-01-26T22:02:35;101693.00;;;2.91;100.00
35224;BME280;21367;51.930;8.112;2023-01-26T22:07:39;101690.75;;;2.75;100.00
35224;BME280;21367;51.930;8.112;2023-01-26T22:12:43;101697.75;;;2.77;100.00
35224;BME280;21367;51.930;8.112;2023-01-26T22:17:50;101690.56;;;2.82;100.00
35224;BME280;21367;51.930;8.112;2023-01-26T22:22:54;101692.81;;;2.98;100.00
35224;BME280;21367;51.930;8.112;2023-01-26T22:27:58;101700.81;;;3.03;100.00
35224;BME280;21367;51.930;8.112;2023-01-26T22:33:05;101695.22;;;2.77;100.00
35224;BME280;21367;51.930;8.112;2023-01-26T22:38:08;101697.69;;;2.86;100.00
35224;BME280;21367;51.930;8.112;2023-01-26T22:43:12;101701.31;;;2.98;100.00
35224;BME280;21367;51.930;8.112;2023-01-26T22:48:20;101711.66;;;2.91;100.00
35224;BME280;21367;51.930;8.112;2023-01-26T22:53:24;101721.00;;;2.63;100.00
35224;BME280;21367;51.930;8.112;2023-01-26T22:58:27;101720.56;;;2.40;100.00
35224;BME280;21367;51.930;8.112;2023-01-26T23:03:34;101731.22;;;2.54;100.00
35224;BME280;21367;51.930;8.112;2023-01-26T23:08:39;101735.91;;;2.41;100.00
35224;BME280;21367;51.930;8.112;2023-01-26T23:13:44;101740.25;;;2.42;100.00
35224;BME280;21367;51.930;8.112;2023-01-26T23:18:53;101742.16;;;1.98;100.00
35224;BME280;21367;51.930;8.112;2023-01-26T23:23:57;101761.38;;;1.60;100.00
35224;BME280;21367;51.930;8.112;2023-01-26T23:29:01;101746.44;;;1.99;100.00
35224;BME280;21367;51.930;8.112;2023-01-26T23:34:08;101746.81;;;2.13;100.00
35224;BME280;21367;51.930;8.112;2023-01-26T23:39:12;101756.69;;;1.82;100.00
35224;BME280;21367;51.930;8.112;2023-01-26T23:44:16;101756.97;;;2.13;100.00
35224;BME280;21367;51.930;8.112;2023-01-26T23:49:23;101757.91;;;2.13;100.00
35224;BME280;21367;51.930;8.112;2023-01-26T23:54:27;101760.69;;;2.16;100.00
35224;BME280;21367;51.930;8.112;2023-01-26T23:59:31;101753.50;;;2.21;100.00
